sensor_id;sensor_type;location;lat;lon;timestamp;temperature;humidity
6054;DHT22;3055;50.886;14.814;2022-09-09T00:01:27;14.50;99.90
6054;DHT22;3055;50.886;14.814;2022-09-09T00:04:05;14.60;99.90
6054;DHT22;3055;50.886;14.814;2022-09-09T00:06:34;14.70;99.90
6054;DHT22;3055;50.886;14.814;2022-09-09T00:09:10;14.70;99.90
6054;DHT22;3055;50.886;14.814;2022-09-09T00:11:43;14.70;99.90
6054;DHT22;3055;50.886;14.814;2022-09-09T00:14:16;14.70;99.90
6054;DHT22;3055;50.886;14.814;2022-09-09T00:16:49;14.70;99.90
6054;DHT22;3055;50.886;14.814;2022-09-09T00:19:23;14.60;99.90
6054;DHT22;3055;50.886;14.814;2022-09-09T00:22:00;14.50;99.90
6054;DHT22;3055;50.886;14.814;2022-09-09T00:24:38;14.40;99.90
6054;DHT22;3055;50.886;14.814;2022-09-09T00:27:08;14.40;99.90
6054;DHT22;3055;50.886;14.814;2022-09-09T00:29:43;14.40;99.90
6054;DHT22;3055;50.886;14.814;2022-09-09T00:32:13;14.40;99.90
6054;DHT22;3055;50.886;14.814;2022-09-09T00:34:49;14.40;99.90
6054;DHT22;3055;50.886;14.814;2022-09-09T00:37:18;14.40;99.90
6054;DHT22;3055;50.886;14.814;2022-09-09T00:39:46;14.40;99.90
6054;DHT22;3055;50.886;14.814;2022-09-09T00:42:15;14.40;99.90
6054;DHT22;3055;50.886;14.814;2022-09-09T00:44:58;14.30;99.90
6054;DHT22;3055;50.886;14.814;2022-09-09T00:47:47;14.10;99.90
6054;DHT22;3055;50.886;14.814;2022-09-09T00:50:31;14.00;99.90
6054;DHT22;3055;50.886;14.814;2022-09-09T00:53:18;13.90;99.90
6054;DHT22;3055;50.886;14.814;2022-09-09T00:55:56;13.80;99.90
6054;DHT22;3055;50.886;14.814;2022-09-09T00:58:24;13.60;99.90
6054;DHT22;3055;50.886;14.814;2022-09-09T01:00:56;13.60;99.90
6054;DHT22;3055;50.886;14.814;2022-09-09T01:03:32;13.50;99.90
6054;DHT22;3055;50.886;14.814;2022-09-09T01:06:14;13.60;99.90
6054;DHT22;3055;50.886;14.814;2022-09-09T01:09:09;13.60;99.90
6054;DHT22;3055;50.886;14.814;2022-09-09T01:11:47;13.50;99.90
6054;DHT22;3055;50.886;14.814;2022-09-09T01:14:24;13.50;99.90
6054;DHT22;3055;50.886;14.814;2022-09-09T01:16:59;13.40;99.90
6054;DHT22;3055;50.886;14.814;2022-09-09T01:19:37;13.40;99.90
6054;DHT22;3055;50.886;14.814;2022-09-09T01:22:12;13.40;99.90
6054;DHT22;3055;50.886;14.814;2022-09-09T01:24:51;13.40;99.90
6054;DHT22;3055;50.886;14.814;2022-09-09T01:27:23;13.30;99.90
6054;DHT22;3055;50.886;14.814;2022-09-09T01:29:51;13.40;99.90
6054;DHT22;3055;50.886;14.814;2022-09-09T01:32:38;13.30;99.90
6054;DHT22;3055;50.886;14.814;2022-09-09T01:35:08;13.30;99.90
6054;DHT22;3055;50.886;14.814;2022-09-09T01:37:36;13.20;99.90
6054;DHT22;3055;50.886;14.814;2022-09-09T01:40:04;13.20;99.90
6054;DHT22;3055;50.886;14.814;2022-09-09T01:42:33;13.30;99.90
6054;DHT22;3055;50.886;14.814;2022-09-09T01:44:59;13.20;99.90
6054;DHT22;3055;50.886;14.814;2022-09-09T01:47:27;13.10;99.90
6054;DHT22;3055;50.886;14.814;2022-09-09T01:49:54;13.20;99.90
6054;DHT22;3055;50.886;14.814;2022-09-09T01:52:21;13.30;99.90
6054;DHT22;3055;50.886;14.814;2022-09-09T01:54:48;13.30;99.90
6054;DHT22;3055;50.886;14.814;2022-09-09T01:57:18;13.40;99.90
6054;DHT22;3055;50.886;14.814;2022-09-09T02:00:01;13.30;99.90
6054;DHT22;3055;50.886;14.814;2022-09-09T02:02:32;13.20;99.90
6054;DHT22;3055;50.886;14.814;2022-09-09T02:05:09;13.10;99.90
6054;DHT22;3055;50.886;14.814;2022-09-09T02:07:39;13.10;99.90
6054;DHT22;3055;50.886;14.814;2022-09-09T02:10:11;13.00;99.90
6054;DHT22;3055;50.886;14.814;2022-09-09T02:12:45;13.00;99.90
6054;DHT22;3055;50.886;14.814;2022-09-09T02:15:19;12.80;99.90
6054;DHT22;3055;50.886;14.814;2022-09-09T02:17:50;12.70;99.90
6054;DHT22;3055;50.886;14.814;2022-09-09T02:20:20;12.70;99.90
6054;DHT22;3055;50.886;14.814;2022-09-09T02:22:50;12.70;99.90
6054;DHT22;3055;50.886;14.814;2022-09-09T02:25:20;12.70;99.90
6054;DHT22;3055;50.886;14.814;2022-09-09T02:27:49;12.70;99.90
6054;DHT22;3055;50.886;14.814;2022-09-09T02:30:19;12.60;99.90
6054;DHT22;3055;50.886;14.814;2022-09-09T02:32:49;12.60;99.90
6054;DHT22;3055;50.886;14.814;2022-09-09T02:35:20;12.60;99.90
6054;DHT22;3055;50.886;14.814;2022-09-09T02:37:51;12.70;99.90
6054;DHT22;3055;50.886;14.814;2022-09-09T02:40:20;12.80;99.90
6054;DHT22;3055;50.886;14.814;2022-09-09T02:42:48;12.70;99.90
6054;DHT22;3055;50.886;14.814;2022-09-09T02:45:19;12.60;99.90
6054;DHT22;3055;50.886;14.814;2022-09-09T02:47:51;12.60;99.90
6054;DHT22;3055;50.886;14.814;2022-09-09T02:50:23;12.60;99.90
6054;DHT22;3055;50.886;14.814;2022-09-09T02:53:02;12.60;99.90
6054;DHT22;3055;50.886;14.814;2022-09-09T02:55:38;12.70;99.90
6054;DHT22;3055;50.886;14.814;2022-09-09T02:58:08;12.60;99.90
6054;DHT22;3055;50.886;14.814;2022-09-09T03:00:39;12.70;99.90
6054;DHT22;3055;50.886;14.814;2022-09-09T03:03:06;12.60;99.90
6054;DHT22;3055;50.886;14.814;2022-09-09T03:05:34;12.60;99.90
6054;DHT22;3055;50.886;14.814;2022-09-09T03:08:01;12.50;99.90
6054;DHT22;3055;50.886;14.814;2022-09-09T03:10:28;12.40;99.90
6054;DHT22;3055;50.886;14.814;2022-09-09T03:12:56;12.40;99.90
6054;DHT22;3055;50.886;14.814;2022-09-09T03:15:23;12.50;99.90
6054;DHT22;3055;50.886;14.814;2022-09-09T03:17:52;12.50;99.90
6054;DHT22;3055;50.886;14.814;2022-09-09T03:20:19;12.50;99.90
6054;DHT22;3055;50.886;14.814;2022-09-09T03:22:46;12.40;99.90
6054;DHT22;3055;50.886;14.814;2022-09-09T03:25:13;12.40;99.90
6054;DHT22;3055;50.886;14.814;2022-09-09T03:27:39;12.50;99.90
6054;DHT22;3055;50.886;14.814;2022-09-09T03:30:07;12.50;99.90
6054;DHT22;3055;50.886;14.814;2022-09-09T03:32:34;12.50;99.90
6054;DHT22;3055;50.886;14.814;2022-09-09T03:35:03;12.50;99.90
6054;DHT22;3055;50.886;14.814;2022-09-09T03:37:30;12.40;99.90
6054;DHT22;3055;50.886;14.814;2022-09-09T03:39:57;12.50;99.90
6054;DHT22;3055;50.886;14.814;2022-09-09T03:42:25;12.60;99.90
6054;DHT22;3055;50.886;14.814;2022-09-09T03:44:52;12.60;99.90
6054;DHT22;3055;50.886;14.814;2022-09-09T03:47:21;12.50;99.90
6054;DHT22;3055;50.886;14.814;2022-09-09T03:49:48;12.50;99.90
6054;DHT22;3055;50.886;14.814;2022-09-09T03:52:16;12.40;99.90
6054;DHT22;3055;50.886;14.814;2022-09-09T03:54:44;12.30;99.90
6054;DHT22;3055;50.886;14.814;2022-09-09T03:57:11;12.20;99.90
6054;DHT22;3055;50.886;14.814;2022-09-09T03:59:39;12.30;99.90
6054;DHT22;3055;50.886;14.814;2022-09-09T04:02:06;12.30;99.90
6054;DHT22;3055;50.886;14.814;2022-09-09T04:04:33;12.30;99.90
6054;DHT22;3055;50.886;14.814;2022-09-09T04:07:00;12.40;99.90
6054;DHT22;3055;50.886;14.814;2022-09-09T04:09:29;12.40;99.90
6054;DHT22;3055;50.886;14.814;2022-09-09T04:11:57;12.40;99.90
6054;DHT22;3055;50.886;14.814;2022-09-09T04:14:23;12.50;99.90
6054;DHT22;3055;50.886;14.814;2022-09-09T04:16:54;12.50;99.90
6054;DHT22;3055;50.886;14.814;2022-09-09T04:19:23;12.50;99.90
6054;DHT22;3055;50.886;14.814;2022-09-09T04:21:50;12.50;99.90
6054;DHT22;3055;50.886;14.814;2022-09-09T04:24:18;12.40;99.90
6054;DHT22;3055;50.886;14.814;2022-09-09T04:26:47;12.40;99.90
6054;DHT22;3055;50.886;14.814;2022-09-09T04:29:14;12.50;99.90
6054;DHT22;3055;50.886;14.814;2022-09-09T04:31:42;12.50;99.90
6054;DHT22;3055;50.886;14.814;2022-09-09T04:34:10;12.50;99.90
6054;DHT22;3055;50.886;14.814;2022-09-09T04:36:37;12.50;99.90
6054;DHT22;3055;50.886;14.814;2022-09-09T04:39:06;12.50;99.90
6054;DHT22;3055;50.886;14.814;2022-09-09T04:41:32;12.50;99.90
6054;DHT22;3055;50.886;14.814;2022-09-09T04:44:01;12.50;99.90
6054;DHT22;3055;50.886;14.814;2022-09-09T04:46:29;12.60;99.90
6054;DHT22;3055;50.886;14.814;2022-09-09T04:48:56;12.60;99.90
6054;DHT22;3055;50.886;14.814;2022-09-09T04:51:23;12.70;99.90
6054;DHT22;3055;50.886;14.814;2022-09-09T04:53:50;12.70;99.90
6054;DHT22;3055;50.886;14.814;2022-09-09T04:56:19;12.60;99.90
6054;DHT22;3055;50.886;14.814;2022-09-09T04:58:46;12.70;99.90
6054;DHT22;3055;50.886;14.814;2022-09-09T05:01:17;12.80;99.90
6054;DHT22;3055;50.886;14.814;2022-09-09T05:03:44;12.90;99.90
6054;DHT22;3055;50.886;14.814;2022-09-09T05:06:13;13.00;99.90
6054;DHT22;3055;50.886;14.814;2022-09-09T05:08:43;13.20;99.90
6054;DHT22;3055;50.886;14.814;2022-09-09T05:11:15;13.30;99.90
6054;DHT22;3055;50.886;14.814;2022-09-09T05:13:43;13.30;99.90
6054;DHT22;3055;50.886;14.814;2022-09-09T05:16:10;13.50;99.90
6054;DHT22;3055;50.886;14.814;2022-09-09T05:18:39;13.60;99.90
6054;DHT22;3055;50.886;14.814;2022-09-09T05:21:06;13.70;99.90
6054;DHT22;3055;50.886;14.814;2022-09-09T05:23:33;13.90;99.90
6054;DHT22;3055;50.886;14.814;2022-09-09T05:26:01;14.10;99.90
6054;DHT22;3055;50.886;14.814;2022-09-09T05:28:28;14.10;99.90
6054;DHT22;3055;50.886;14.814;2022-09-09T05:30:59;14.10;99.90
6054;DHT22;3055;50.886;14.814;2022-09-09T05:33:29;14.10;99.90
6054;DHT22;3055;50.886;14.814;2022-09-09T05:35:59;14.10;99.90
6054;DHT22;3055;50.886;14.814;2022-09-09T05:38:27;14.10;99.90
6054;DHT22;3055;50.886;14.814;2022-09-09T05:40:54;14.20;99.90
6054;DHT22;3055;50.886;14.814;2022-09-09T05:43:22;14.30;99.90
6054;DHT22;3055;50.886;14.814;2022-09-09T05:45:59;14.40;99.90
6054;DHT22;3055;50.886;14.814;2022-09-09T05:48:28;14.60;99.90
6054;DHT22;3055;50.886;14.814;2022-09-09T05:50:55;14.80;99.90
6054;DHT22;3055;50.886;14.814;2022-09-09T05:53:23;15.00;99.90
6054;DHT22;3055;50.886;14.814;2022-09-09T05:55:50;15.10;99.90
6054;DHT22;3055;50.886;14.814;2022-09-09T05:58:18;15.20;99.90
6054;DHT22;3055;50.886;14.814;2022-09-09T06:00:44;15.30;99.90
6054;DHT22;3055;50.886;14.814;2022-09-09T06:03:11;15.60;99.90
6054;DHT22;3055;50.886;14.814;2022-09-09T06:05:39;15.70;99.90
6054;DHT22;3055;50.886;14.814;2022-09-09T06:08:06;15.80;99.60
6054;DHT22;3055;50.886;14.814;2022-09-09T06:10:34;16.00;56.40
6054;DHT22;3055;50.886;14.814;2022-09-09T06:13:01;16.10;33.40
6054;DHT22;3055;50.886;14.814;2022-09-09T06:15:28;16.20;25.30
6054;DHT22;3055;50.886;14.814;2022-09-09T06:17:56;16.20;32.50
6054;DHT22;3055;50.886;14.814;2022-09-09T06:20:23;16.30;38.10
6054;DHT22;3055;50.886;14.814;2022-09-09T06:22:50;16.30;13.70
6054;DHT22;3055;50.886;14.814;2022-09-09T06:25:17;16.40;22.60
6054;DHT22;3055;50.886;14.814;2022-09-09T06:27:49;16.60;26.80
6054;DHT22;3055;50.886;14.814;2022-09-09T06:30:16;16.80;31.00
6054;DHT22;3055;50.886;14.814;2022-09-09T06:32:43;17.00;1.30
6054;DHT22;3055;50.886;14.814;2022-09-09T06:35:10;17.20;1.00
6054;DHT22;3055;50.886;14.814;2022-09-09T06:37:39;17.20;1.00
6054;DHT22;3055;50.886;14.814;2022-09-09T06:40:07;17.30;1.00
6054;DHT22;3055;50.886;14.814;2022-09-09T06:42:34;17.40;1.00
6054;DHT22;3055;50.886;14.814;2022-09-09T06:45:02;17.60;1.00
6054;DHT22;3055;50.886;14.814;2022-09-09T06:47:29;17.70;1.00
6054;DHT22;3055;50.886;14.814;2022-09-09T06:49:56;17.90;1.00
6054;DHT22;3055;50.886;14.814;2022-09-09T06:52:23;18.10;1.00
6054;DHT22;3055;50.886;14.814;2022-09-09T06:54:51;18.20;1.00
6054;DHT22;3055;50.886;14.814;2022-09-09T06:57:19;18.30;1.00
6054;DHT22;3055;50.886;14.814;2022-09-09T06:59:46;18.40;1.00
6054;DHT22;3055;50.886;14.814;2022-09-09T07:02:14;18.60;1.00
6054;DHT22;3055;50.886;14.814;2022-09-09T07:04:41;18.60;1.00
6054;DHT22;3055;50.886;14.814;2022-09-09T07:07:08;18.70;1.00
6054;DHT22;3055;50.886;14.814;2022-09-09T07:09:37;18.80;1.00
6054;DHT22;3055;50.886;14.814;2022-09-09T07:12:05;18.90;99.90
6054;DHT22;3055;50.886;14.814;2022-09-09T07:14:32;18.90;99.90
6054;DHT22;3055;50.886;14.814;2022-09-09T07:16:59;19.00;99.90
6054;DHT22;3055;50.886;14.814;2022-09-09T07:19:30;18.90;99.90
6054;DHT22;3055;50.886;14.814;2022-09-09T07:21:57;18.90;99.90
6054;DHT22;3055;50.886;14.814;2022-09-09T07:24:24;18.90;99.90
6054;DHT22;3055;50.886;14.814;2022-09-09T07:26:56;18.90;99.90
6054;DHT22;3055;50.886;14.814;2022-09-09T07:29:23;19.00;99.90
6054;DHT22;3055;50.886;14.814;2022-09-09T07:31:49;19.10;99.90
6054;DHT22;3055;50.886;14.814;2022-09-09T07:34:17;19.20;99.90
6054;DHT22;3055;50.886;14.814;2022-09-09T07:36:46;19.30;1.00
6054;DHT22;3055;50.886;14.814;2022-09-09T07:39:14;19.30;1.00
6054;DHT22;3055;50.886;14.814;2022-09-09T07:41:44;19.40;1.00
6054;DHT22;3055;50.886;14.814;2022-09-09T07:44:12;19.40;99.90
6054;DHT22;3055;50.886;14.814;2022-09-09T07:46:40;19.30;1.00
6054;DHT22;3055;50.886;14.814;2022-09-09T07:49:08;19.20;49.90
6054;DHT22;3055;50.886;14.814;2022-09-09T07:51:37;19.20;20.80
6054;DHT22;3055;50.886;14.814;2022-09-09T07:54:07;19.30;1.00
6054;DHT22;3055;50.886;14.814;2022-09-09T07:56:35;19.30;1.00
6054;DHT22;3055;50.886;14.814;2022-09-09T07:59:03;19.40;1.00
6054;DHT22;3055;50.886;14.814;2022-09-09T08:01:34;19.50;99.90
6054;DHT22;3055;50.886;14.814;2022-09-09T08:04:04;19.60;99.90
6054;DHT22;3055;50.886;14.814;2022-09-09T08:06:35;19.80;1.20
6054;DHT22;3055;50.886;14.814;2022-09-09T08:09:04;20.00;99.90
6054;DHT22;3055;50.886;14.814;2022-09-09T08:11:32;20.10;99.90
6054;DHT22;3055;50.886;14.814;2022-09-09T08:13:59;20.30;23.20
6054;DHT22;3055;50.886;14.814;2022-09-09T08:16:28;20.40;99.90
6054;DHT22;3055;50.886;14.814;2022-09-09T08:18:55;20.70;1.00
6054;DHT22;3055;50.886;14.814;2022-09-09T08:21:24;20.80;1.00
6054;DHT22;3055;50.886;14.814;2022-09-09T08:23:53;20.90;99.90
6054;DHT22;3055;50.886;14.814;2022-09-09T08:26:22;20.80;99.90
6054;DHT22;3055;50.886;14.814;2022-09-09T08:28:51;20.80;99.90
6054;DHT22;3055;50.886;14.814;2022-09-09T08:31:19;20.80;99.90
6054;DHT22;3055;50.886;14.814;2022-09-09T08:33:47;20.80;99.90
6054;DHT22;3055;50.886;14.814;2022-09-09T08:36:16;20.80;1.00
6054;DHT22;3055;50.886;14.814;2022-09-09T08:38:43;20.80;1.00
6054;DHT22;3055;50.886;14.814;2022-09-09T08:41:52;20.70;99.90
6054;DHT22;3055;50.886;14.814;2022-09-09T08:44:31;20.70;1.00
6054;DHT22;3055;50.886;14.814;2022-09-09T08:47:02;20.60;99.90
6054;DHT22;3055;50.886;14.814;2022-09-09T08:49:53;20.60;99.90
6054;DHT22;3055;50.886;14.814;2022-09-09T08:52:28;20.70;99.90
6054;DHT22;3055;50.886;14.814;2022-09-09T08:54:58;21.00;99.90
6054;DHT22;3055;50.886;14.814;2022-09-09T08:57:31;21.00;99.90
6054;DHT22;3055;50.886;14.814;2022-09-09T08:59:59;21.10;99.90
6054;DHT22;3055;50.886;14.814;2022-09-09T09:02:30;21.20;99.90
6054;DHT22;3055;50.886;14.814;2022-09-09T09:05:09;21.30;99.90
6054;DHT22;3055;50.886;14.814;2022-09-09T09:07:52;21.60;99.90
6054;DHT22;3055;50.886;14.814;2022-09-09T09:10:31;21.60;99.90
6054;DHT22;3055;50.886;14.814;2022-09-09T09:13:03;21.60;99.90
6054;DHT22;3055;50.886;14.814;2022-09-09T09:15:32;21.40;99.90
6054;DHT22;3055;50.886;14.814;2022-09-09T09:18:02;21.10;99.90
6054;DHT22;3055;50.886;14.814;2022-09-09T09:20:38;20.90;99.90
6054;DHT22;3055;50.886;14.814;2022-09-09T09:23:15;20.70;99.90
6054;DHT22;3055;50.886;14.814;2022-09-09T09:25:46;20.50;99.90
6054;DHT22;3055;50.886;14.814;2022-09-09T09:28:16;20.30;99.90
6054;DHT22;3055;50.886;14.814;2022-09-09T09:30:47;20.30;99.90
6054;DHT22;3055;50.886;14.814;2022-09-09T09:33:20;20.30;99.90
6054;DHT22;3055;50.886;14.814;2022-09-09T09:35:49;20.30;99.90
6054;DHT22;3055;50.886;14.814;2022-09-09T09:38:18;20.30;99.90
6054;DHT22;3055;50.886;14.814;2022-09-09T09:40:49;20.40;99.90
6054;DHT22;3055;50.886;14.814;2022-09-09T09:43:22;20.60;99.90
6054;DHT22;3055;50.886;14.814;2022-09-09T09:45:50;20.90;99.90
6054;DHT22;3055;50.886;14.814;2022-09-09T09:48:17;21.20;99.90
6054;DHT22;3055;50.886;14.814;2022-09-09T09:50:49;21.50;99.90
6054;DHT22;3055;50.886;14.814;2022-09-09T09:53:22;21.70;99.90
6054;DHT22;3055;50.886;14.814;2022-09-09T09:55:55;21.90;99.90
6054;DHT22;3055;50.886;14.814;2022-09-09T09:58:25;22.00;99.90
6054;DHT22;3055;50.886;14.814;2022-09-09T10:00:54;22.20;99.90
6054;DHT22;3055;50.886;14.814;2022-09-09T10:03:26;22.30;99.90
6054;DHT22;3055;50.886;14.814;2022-09-09T10:05:53;22.40;99.90
6054;DHT22;3055;50.886;14.814;2022-09-09T10:08:22;22.40;98.60
6054;DHT22;3055;50.886;14.814;2022-09-09T10:11:02;22.50;99.90
6054;DHT22;3055;50.886;14.814;2022-09-09T10:13:39;22.80;95.50
6054;DHT22;3055;50.886;14.814;2022-09-09T10:16:22;23.10;82.10
6054;DHT22;3055;50.886;14.814;2022-09-09T10:18:58;23.20;55.50
6054;DHT22;3055;50.886;14.814;2022-09-09T10:21:51;23.30;33.40
6054;DHT22;3055;50.886;14.814;2022-09-09T10:25:01;23.30;26.90
6054;DHT22;3055;50.886;14.814;2022-09-09T10:27:36;23.30;20.70
6054;DHT22;3055;50.886;14.814;2022-09-09T10:30:12;23.50;24.30
6054;DHT22;3055;50.886;14.814;2022-09-09T10:32:46;23.70;16.10
6054;DHT22;3055;50.886;14.814;2022-09-09T10:35:29;23.80;1.80
6054;DHT22;3055;50.886;14.814;2022-09-09T10:38:13;23.90;1.00
6054;DHT22;3055;50.886;14.814;2022-09-09T10:41:00;23.80;1.00
6054;DHT22;3055;50.886;14.814;2022-09-09T10:43:46;23.80;1.00
6054;DHT22;3055;50.886;14.814;2022-09-09T10:46:26;23.90;1.00
6054;DHT22;3055;50.886;14.814;2022-09-09T10:49:07;24.00;1.00
6054;DHT22;3055;50.886;14.814;2022-09-09T10:51:40;24.00;1.00
6054;DHT22;3055;50.886;14.814;2022-09-09T10:54:18;24.20;1.00
6054;DHT22;3055;50.886;14.814;2022-09-09T10:56:54;24.30;1.00
6054;DHT22;3055;50.886;14.814;2022-09-09T10:59:25;24.40;1.00
6054;DHT22;3055;50.886;14.814;2022-09-09T11:01:58;24.70;1.00
6054;DHT22;3055;50.886;14.814;2022-09-09T11:04:30;24.80;1.00
6054;DHT22;3055;50.886;14.814;2022-09-09T11:06:58;24.60;1.00
6054;DHT22;3055;50.886;14.814;2022-09-09T11:09:32;24.50;1.00
6054;DHT22;3055;50.886;14.814;2022-09-09T11:12:02;24.60;1.00
6054;DHT22;3055;50.886;14.814;2022-09-09T11:14:32;24.60;1.00
6054;DHT22;3055;50.886;14.814;2022-09-09T11:17:06;24.70;1.00
6054;DHT22;3055;50.886;14.814;2022-09-09T11:19:39;24.80;1.00
6054;DHT22;3055;50.886;14.814;2022-09-09T11:22:08;25.00;1.00
6054;DHT22;3055;50.886;14.814;2022-09-09T11:24:45;25.10;1.00
6054;DHT22;3055;50.886;14.814;2022-09-09T11:27:18;25.20;1.00
6054;DHT22;3055;50.886;14.814;2022-09-09T11:30:15;25.40;1.00
6054;DHT22;3055;50.886;14.814;2022-09-09T11:35:58;25.90;1.00
6054;DHT22;3055;50.886;14.814;2022-09-09T11:38:29;26.10;1.00
6054;DHT22;3055;50.886;14.814;2022-09-09T11:41:00;26.00;1.00
6054;DHT22;3055;50.886;14.814;2022-09-09T11:43:30;25.90;1.00
6054;DHT22;3055;50.886;14.814;2022-09-09T11:46:00;25.90;1.00
6054;DHT22;3055;50.886;14.814;2022-09-09T11:48:38;25.70;1.00
6054;DHT22;3055;50.886;14.814;2022-09-09T11:51:11;25.70;1.00
6054;DHT22;3055;50.886;14.814;2022-09-09T11:53:49;25.80;1.00
6054;DHT22;3055;50.886;14.814;2022-09-09T11:56:26;25.90;1.00
6054;DHT22;3055;50.886;14.814;2022-09-09T11:59:02;26.10;1.00
6054;DHT22;3055;50.886;14.814;2022-09-09T12:01:34;26.30;1.00
6054;DHT22;3055;50.886;14.814;2022-09-09T12:04:25;26.20;1.00
6054;DHT22;3055;50.886;14.814;2022-09-09T12:06:58;26.20;1.00
6054;DHT22;3055;50.886;14.814;2022-09-09T12:09:31;26.30;1.00
6054;DHT22;3055;50.886;14.814;2022-09-09T12:12:06;26.60;1.00
6054;DHT22;3055;50.886;14.814;2022-09-09T12:14:38;26.60;1.00
6054;DHT22;3055;50.886;14.814;2022-09-09T12:17:19;26.70;1.00
6054;DHT22;3055;50.886;14.814;2022-09-09T12:19:47;26.60;1.00
6054;DHT22;3055;50.886;14.814;2022-09-09T12:22:24;26.50;1.00
6054;DHT22;3055;50.886;14.814;2022-09-09T12:24:56;26.20;1.00
6054;DHT22;3055;50.886;14.814;2022-09-09T12:27:30;25.70;1.00
6054;DHT22;3055;50.886;14.814;2022-09-09T12:30:02;25.60;1.00
6054;DHT22;3055;50.886;14.814;2022-09-09T12:32:30;25.80;1.00
6054;DHT22;3055;50.886;14.814;2022-09-09T12:34:59;26.00;1.00
6054;DHT22;3055;50.886;14.814;2022-09-09T12:37:32;26.20;1.00
6054;DHT22;3055;50.886;14.814;2022-09-09T12:40:02;26.30;1.00
6054;DHT22;3055;50.886;14.814;2022-09-09T12:42:30;26.60;1.00
6054;DHT22;3055;50.886;14.814;2022-09-09T12:45:00;26.70;1.00
6054;DHT22;3055;50.886;14.814;2022-09-09T12:47:37;26.60;1.00
6054;DHT22;3055;50.886;14.814;2022-09-09T12:50:16;26.70;1.00
6054;DHT22;3055;50.886;14.814;2022-09-09T12:52:46;26.90;1.00
6054;DHT22;3055;50.886;14.814;2022-09-09T12:55:18;27.10;1.00
6054;DHT22;3055;50.886;14.814;2022-09-09T12:57:45;27.20;1.00
6054;DHT22;3055;50.886;14.814;2022-09-09T13:00:18;27.10;1.00
6054;DHT22;3055;50.886;14.814;2022-09-09T13:02:48;26.50;1.00
6054;DHT22;3055;50.886;14.814;2022-09-09T13:05:18;26.20;1.00
6054;DHT22;3055;50.886;14.814;2022-09-09T13:07:47;26.20;1.00
6054;DHT22;3055;50.886;14.814;2022-09-09T13:10:19;26.10;1.00
6054;DHT22;3055;50.886;14.814;2022-09-09T13:12:48;26.30;1.00
6054;DHT22;3055;50.886;14.814;2022-09-09T13:15:20;26.80;1.00
6054;DHT22;3055;50.886;14.814;2022-09-09T13:17:56;27.00;1.00
6054;DHT22;3055;50.886;14.814;2022-09-09T13:20:24;27.10;1.00
6054;DHT22;3055;50.886;14.814;2022-09-09T13:22:54;27.10;1.00
6054;DHT22;3055;50.886;14.814;2022-09-09T13:25:24;27.40;1.00
6054;DHT22;3055;50.886;14.814;2022-09-09T13:27:54;27.30;1.00
6054;DHT22;3055;50.886;14.814;2022-09-09T13:30:24;27.30;1.00
6054;DHT22;3055;50.886;14.814;2022-09-09T13:33:06;26.90;1.00
6054;DHT22;3055;50.886;14.814;2022-09-09T13:35:33;26.40;1.00
6054;DHT22;3055;50.886;14.814;2022-09-09T13:38:08;25.70;1.00
6054;DHT22;3055;50.886;14.814;2022-09-09T13:40:36;25.40;1.00
6054;DHT22;3055;50.886;14.814;2022-09-09T13:43:04;25.70;1.00
6054;DHT22;3055;50.886;14.814;2022-09-09T13:45:31;25.90;1.00
6054;DHT22;3055;50.886;14.814;2022-09-09T13:48:09;26.00;1.00
6054;DHT22;3055;50.886;14.814;2022-09-09T13:50:39;26.10;1.00
6054;DHT22;3055;50.886;14.814;2022-09-09T13:53:08;25.60;1.00
6054;DHT22;3055;50.886;14.814;2022-09-09T13:55:36;25.40;1.00
6054;DHT22;3055;50.886;14.814;2022-09-09T13:58:04;25.30;1.00
6054;DHT22;3055;50.886;14.814;2022-09-09T14:00:33;25.40;1.00
6054;DHT22;3055;50.886;14.814;2022-09-09T14:03:01;25.90;1.00
6054;DHT22;3055;50.886;14.814;2022-09-09T14:05:30;26.10;1.00
6054;DHT22;3055;50.886;14.814;2022-09-09T14:07:58;26.40;1.00
6054;DHT22;3055;50.886;14.814;2022-09-09T14:10:27;26.90;1.00
6054;DHT22;3055;50.886;14.814;2022-09-09T14:12:55;27.40;1.00
6054;DHT22;3055;50.886;14.814;2022-09-09T14:15:22;27.70;1.00
6054;DHT22;3055;50.886;14.814;2022-09-09T14:17:49;27.60;1.00
6054;DHT22;3055;50.886;14.814;2022-09-09T14:20:18;27.60;1.00
6054;DHT22;3055;50.886;14.814;2022-09-09T14:22:47;27.70;1.00
6054;DHT22;3055;50.886;14.814;2022-09-09T14:25:14;28.00;1.00
6054;DHT22;3055;50.886;14.814;2022-09-09T14:27:42;28.00;1.00
6054;DHT22;3055;50.886;14.814;2022-09-09T14:30:11;28.40;1.00
6054;DHT22;3055;50.886;14.814;2022-09-09T14:32:38;29.10;1.00
6054;DHT22;3055;50.886;14.814;2022-09-09T14:35:05;29.60;1.00
6054;DHT22;3055;50.886;14.814;2022-09-09T14:37:33;29.60;1.00
6054;DHT22;3055;50.886;14.814;2022-09-09T14:40:00;29.20;1.00
6054;DHT22;3055;50.886;14.814;2022-09-09T14:42:27;28.10;1.00
6054;DHT22;3055;50.886;14.814;2022-09-09T14:44:57;27.20;1.00
6054;DHT22;3055;50.886;14.814;2022-09-09T14:47:24;26.40;1.00
6054;DHT22;3055;50.886;14.814;2022-09-09T14:49:51;25.80;1.00
6054;DHT22;3055;50.886;14.814;2022-09-09T14:52:19;25.30;1.00
6054;DHT22;3055;50.886;14.814;2022-09-09T14:54:46;25.40;1.00
6054;DHT22;3055;50.886;14.814;2022-09-09T14:57:13;25.80;1.00
6054;DHT22;3055;50.886;14.814;2022-09-09T14:59:40;25.60;1.00
6054;DHT22;3055;50.886;14.814;2022-09-09T15:02:09;25.30;1.00
6054;DHT22;3055;50.886;14.814;2022-09-09T15:04:38;24.70;1.00
6054;DHT22;3055;50.886;14.814;2022-09-09T15:07:05;24.50;1.00
6054;DHT22;3055;50.886;14.814;2022-09-09T15:09:33;25.00;1.00
6054;DHT22;3055;50.886;14.814;2022-09-09T15:12:02;26.00;1.00
6054;DHT22;3055;50.886;14.814;2022-09-09T15:14:30;27.40;1.00
6054;DHT22;3055;50.886;14.814;2022-09-09T15:16:57;28.40;1.00
6054;DHT22;3055;50.886;14.814;2022-09-09T15:19:25;28.80;1.00
6054;DHT22;3055;50.886;14.814;2022-09-09T15:21:52;29.30;1.00
6054;DHT22;3055;50.886;14.814;2022-09-09T15:24:20;29.60;1.00
6054;DHT22;3055;50.886;14.814;2022-09-09T15:26:47;29.70;1.00
6054;DHT22;3055;50.886;14.814;2022-09-09T15:29:14;29.50;1.00
6054;DHT22;3055;50.886;14.814;2022-09-09T15:31:41;29.20;1.00
6054;DHT22;3055;50.886;14.814;2022-09-09T15:34:08;28.70;1.00
6054;DHT22;3055;50.886;14.814;2022-09-09T15:36:38;28.90;1.00
6054;DHT22;3055;50.886;14.814;2022-09-09T15:39:07;29.00;1.00
6054;DHT22;3055;50.886;14.814;2022-09-09T15:41:35;28.80;1.00
6054;DHT22;3055;50.886;14.814;2022-09-09T15:44:02;28.50;1.00
6054;DHT22;3055;50.886;14.814;2022-09-09T15:46:31;28.00;1.00
6054;DHT22;3055;50.886;14.814;2022-09-09T15:49:03;27.50;1.00
6054;DHT22;3055;50.886;14.814;2022-09-09T15:51:30;26.50;1.00
6054;DHT22;3055;50.886;14.814;2022-09-09T15:53:59;25.10;1.00
6054;DHT22;3055;50.886;14.814;2022-09-09T15:56:28;24.20;1.00
6054;DHT22;3055;50.886;14.814;2022-09-09T15:58:56;23.40;1.00
6054;DHT22;3055;50.886;14.814;2022-09-09T16:01:25;23.00;1.00
6054;DHT22;3055;50.886;14.814;2022-09-09T16:03:53;22.70;1.00
6054;DHT22;3055;50.886;14.814;2022-09-09T16:06:22;22.40;1.00
6054;DHT22;3055;50.886;14.814;2022-09-09T16:08:51;22.10;1.00
6054;DHT22;3055;50.886;14.814;2022-09-09T16:11:22;21.90;1.00
6054;DHT22;3055;50.886;14.814;2022-09-09T16:13:51;21.70;1.00
6054;DHT22;3055;50.886;14.814;2022-09-09T16:16:20;21.60;1.00
6054;DHT22;3055;50.886;14.814;2022-09-09T16:18:49;21.40;1.00